createdAt,value
2023-10-09T00:00:35.813Z,100676.53
2023-10-09T00:03:05.908Z,100668.09
2023-10-09T00:05:48.093Z,100673.09
2023-10-09T00:08:35.009Z,100679.09
2023-10-09T00:11:20.040Z,100675.22
2023-10-09T00:13:59.387Z,100672.41
2023-10-09T00:16:38.524Z,100665.69
2023-10-09T00:19:32.321Z,100669.53
2023-10-09T00:22:06.359Z,100672.47
2023-10-09T00:24:35.674Z,100672.03
2023-10-09T00:27:14.408Z,100679.47
2023-10-09T00:29:50.044Z,100672.44
2023-10-09T00:32:20.512Z,100675.03
2023-10-09T00:34:52.424Z,100682.97
2023-10-09T00:37:24.928Z,100690.06
2023-10-09T00:40:00.673Z,100684.38
2023-10-09T00:42:34.999Z,100687.16
2023-10-09T00:45:06.810Z,100678.09
2023-10-09T00:47:42.833Z,100681.75
2023-10-09T00:50:12.046Z,100676.81
2023-10-09T00:53:01.823Z,100690.13
2023-10-09T00:55:45.602Z,100690.09
2023-10-09T00:58:16.095Z,100683.81
2023-10-09T01:00:48.243Z,100693.22
2023-10-09T01:03:19.162Z,100702.59
2023-10-09T01:06:01.341Z,100707.34
2023-10-09T01:08:57.259Z,100708.66
2023-10-09T01:11:48.376Z,100704.38
2023-10-09T01:14:18.545Z,100708.34
2023-10-09T01:16:48.983Z,100700.84
2023-10-09T01:19:25.833Z,100708.34
2023-10-09T01:21:54.608Z,100697.47
2023-10-09T01:24:24.772Z,100705.44
2023-10-09T01:26:56.147Z,100705.31
2023-10-09T01:29:29.571Z,100703.84
2023-10-09T01:32:02.921Z,100700.53
2023-10-09T01:34:44.607Z,100700.13
2023-10-09T01:37:21.427Z,100702.31
2023-10-09T01:39:53.469Z,100707.47
2023-10-09T01:42:58.152Z,100723.13
2023-10-09T01:45:26.451Z,100718.69
2023-10-09T01:47:58.758Z,100723.38
2023-10-09T01:50:33.213Z,100733.50
2023-10-09T01:53:04.356Z,100732.28
2023-10-09T01:55:38.362Z,100735.72
2023-10-09T01:58:25.725Z,100735.91
2023-10-09T02:00:58.136Z,100733.66
2023-10-09T02:03:27.113Z,100734.13
2023-10-09T02:06:01.683Z,100741.69
2023-10-09T02:08:31.792Z,100741.91
2023-10-09T02:11:00.114Z,100748.81
2023-10-09T02:13:31.443Z,100750.34
2023-10-09T02:16:16.913Z,100747.59
2023-10-09T02:19:01.112Z,100761.78
2023-10-09T02:21:35.753Z,100763.19
2023-10-09T02:24:11.692Z,100764.28
2023-10-09T02:27:08.753Z,100761.91
2023-10-09T02:29:40.357Z,100772.34
2023-10-09T02:32:18.973Z,100771.94
2023-10-09T02:34:48.424Z,100776.53
2023-10-09T02:37:16.708Z,100775.03
2023-10-09T02:39:50.431Z,100776.13
2023-10-09T02:42:25.214Z,100780.97
2023-10-09T02:44:53.902Z,100785.16
2023-10-09T02:47:26.487Z,100785.78
2023-10-09T02:50:02.780Z,100801.56
2023-10-09T02:52:36.240Z,100790.78
2023-10-09T02:55:10.019Z,100801.28
2023-10-09T02:57:39.072Z,100804.78
2023-10-09T03:00:11.392Z,100814.59
2023-10-09T03:02:41.939Z,100818.44
2023-10-09T03:05:14.541Z,100817.03
2023-10-09T03:07:42.919Z,100818.97
2023-10-09T03:10:11.508Z,100814.09
2023-10-09T03:12:41.219Z,100828.47
2023-10-09T03:15:10.951Z,100824.09
2023-10-09T03:17:39.304Z,100829.53
2023-10-09T03:20:14.216Z,100826.38
2023-10-09T03:22:47.473Z,100830.03
2023-10-09T03:25:18.832Z,100832.91
2023-10-09T03:27:48.056Z,100830.41
2023-10-09T03:30:19.070Z,100827.09
2023-10-09T03:32:52.693Z,100823.53
2023-10-09T03:35:29.634Z,100828.91
2023-10-09T03:38:02.339Z,100825.25
2023-10-09T03:40:30.822Z,100827.28
2023-10-09T03:42:59.802Z,100833.72
2023-10-09T03:45:28.926Z,100833.13
2023-10-09T03:48:03.258Z,100838.84
2023-10-09T03:50:40.542Z,100846.16
2023-10-09T03:53:09.657Z,100847.19
2023-10-09T03:55:41.609Z,100849.13
2023-10-09T03:58:13.757Z,100862.63
2023-10-09T04:00:48.571Z,100859.19
2023-10-09T04:03:17.885Z,100858.72
2023-10-09T04:05:46.576Z,100856.22
2023-10-09T04:08:21.567Z,100863.69
2023-10-09T04:10:58.682Z,100865.84
2023-10-09T04:13:35.392Z,100863.56
2023-10-09T04:16:14.963Z,100880.72
2023-10-09T04:18:47.254Z,100887.03
2023-10-09T04:21:21.179Z,100883.56
2023-10-09T04:24:08.045Z,100881.16
2023-10-09T04:26:37.030Z,100893.03
2023-10-09T04:29:06.265Z,100896.97
2023-10-09T04:31:39.188Z,100899.75
2023-10-09T04:34:25.897Z,100900.78
2023-10-09T04:37:03.111Z,100916.09
2023-10-09T04:39:31.784Z,100917.41
2023-10-09T04:42:19.195Z,100917.09
2023-10-09T04:45:07.140Z,100923.56
2023-10-09T04:47:39.575Z,100927.72
2023-10-09T04:50:35.588Z,100932.63
2023-10-09T04:53:15.870Z,100924.59
2023-10-09T04:55:56.080Z,100927.13
2023-10-09T04:58:27.743Z,100939.06
2023-10-09T05:00:59.349Z,100943.63
2023-10-09T05:03:48.131Z,100937.59
2023-10-09T05:06:45.370Z,100948.72
2023-10-09T05:09:16.388Z,100943.72
2023-10-09T05:11:53.990Z,100946.75
2023-10-09T05:14:29.173Z,100955.97
2023-10-09T05:16:57.496Z,100967.03
2023-10-09T05:19:43.696Z,100971.69
2023-10-09T05:22:31.568Z,100967.53
2023-10-09T05:25:01.244Z,100965.97
2023-10-09T05:27:48.355Z,100969.00
2023-10-09T05:30:29.038Z,100970.81
2023-10-09T05:33:05.807Z,100972.44
2023-10-09T05:36:01.253Z,100967.78
2023-10-09T05:38:32.603Z,100967.78
2023-10-09T05:41:20.626Z,100967.78
2023-10-09T05:44:07.084Z,100980.47
2023-10-09T05:46:38.932Z,100975.31
2023-10-09T05:49:21.704Z,100980.03
2023-10-09T05:51:55.349Z,100979.22
2023-10-09T05:54:46.257Z,100980.28
2023-10-09T05:57:32.802Z,100983.81
2023-10-09T06:00:19.348Z,100976.66
2023-10-09T06:03:05.934Z,100975.78
2023-10-09T06:05:43.234Z,100975.94
2023-10-09T06:08:11.971Z,100967.28
2023-10-09T06:10:43.790Z,100965.69
2023-10-09T06:13:32.151Z,100971.28
2023-10-09T06:16:32.421Z,100966.16
2023-10-09T06:19:19.166Z,100970.91
2023-10-09T06:22:05.964Z,100977.69
2023-10-09T06:24:52.723Z,100972.47
2023-10-09T06:27:47.511Z,100955.66
2023-10-09T06:30:29.495Z,100952.25
2023-10-09T06:33:06.643Z,100948.72
2023-10-09T06:35:37.968Z,100954.88
2023-10-09T06:38:25.443Z,100955.75
2023-10-09T06:40:53.717Z,100946.22
2023-10-09T06:43:23.555Z,100950.91
2023-10-09T06:46:11.495Z,100957.41
2023-10-09T06:48:39.801Z,100957.56
2023-10-09T06:51:17.808Z,100965.72
2023-10-09T06:53:55.240Z,100952.56
2023-10-09T06:56:31.473Z,100944.78
2023-10-09T06:59:23.403Z,100955.72
2023-10-09T07:02:12.199Z,100973.75
2023-10-09T07:04:40.566Z,100983.00
2023-10-09T07:07:15.237Z,100988.50
2023-10-09T07:10:06.009Z,100981.50
2023-10-09T07:12:44.657Z,100976.28
2023-10-09T07:15:13.872Z,100978.19
2023-10-09T07:17:42.189Z,100984.50
2023-10-09T07:20:43.258Z,100990.75
2023-10-09T07:23:17.784Z,100993.66
2023-10-09T07:26:00.709Z,100991.78
2023-10-09T07:28:38.771Z,101007.69
2023-10-09T07:31:11.476Z,101005.94
2023-10-09T07:33:59.030Z,101004.34
2023-10-09T07:36:36.687Z,101013.16
2023-10-09T07:39:15.507Z,101018.44
2023-10-09T07:41:57.726Z,101016.63
2023-10-09T07:44:44.169Z,101015.63
2023-10-09T07:47:19.126Z,101014.44
2023-10-09T07:49:55.604Z,101016.19
2023-10-09T07:52:24.208Z,101021.31
2023-10-09T07:54:54.910Z,101017.75
2023-10-09T07:57:31.070Z,101018.94
2023-10-09T08:00:34.186Z,101013.50
2023-10-09T08:03:02.821Z,101018.81
2023-10-09T08:05:46.360Z,101023.25
2023-10-09T08:08:43.665Z,101026.59
2023-10-09T08:11:30.367Z,101023.13
2023-10-09T08:13:59.070Z,101022.81
2023-10-09T08:16:38.148Z,101013.63
2023-10-09T08:19:27.184Z,101026.84
2023-10-09T08:22:13.651Z,101021.47
2023-10-09T08:24:45.840Z,101022.34
2023-10-09T08:27:32.452Z,101017.72
2023-10-09T08:30:25.334Z,101016.72
2023-10-09T08:35:51.228Z,101011.13
2023-10-09T08:38:35.097Z,100999.41
2023-10-09T08:41:19.906Z,100996.41
2023-10-09T08:43:54.786Z,101002.41
2023-10-09T08:46:30.964Z,101007.50
2023-10-09T08:49:01.024Z,101016.47
2023-10-09T08:51:31.453Z,101024.59
2023-10-09T08:53:59.947Z,101029.94
2023-10-09T08:56:28.262Z,101029.09
2023-10-09T08:58:59.500Z,101025.38
2023-10-09T09:01:29.934Z,101012.84
2023-10-09T09:03:58.218Z,101013.81
2023-10-09T09:06:26.556Z,101015.63
2023-10-09T09:09:01.540Z,101016.47
2023-10-09T09:11:32.455Z,101025.31
2023-10-09T09:14:08.484Z,101017.19
2023-10-09T09:16:38.560Z,101022.47
2023-10-09T09:19:11.326Z,101020.66
2023-10-09T09:21:44.974Z,101015.78
2023-10-09T09:24:28.371Z,101007.69
2023-10-09T09:27:20.548Z,101012.16
2023-10-09T09:29:55.081Z,101004.91
2023-10-09T09:32:37.712Z,101004.78
2023-10-09T09:35:07.547Z,101000.19
2023-10-09T09:37:45.483Z,100995.66
2023-10-09T09:40:34.700Z,101006.16
2023-10-09T09:43:11.832Z,101001.69
2023-10-09T09:45:48.403Z,101007.84
2023-10-09T09:48:18.525Z,101002.41
2023-10-09T09:50:47.384Z,101004.13
2023-10-09T09:53:19.496Z,100996.09
2023-10-09T09:55:59.996Z,100991.53
2023-10-09T09:58:34.653Z,100988.69
2023-10-09T10:01:26.055Z,100986.72
2023-10-09T10:04:03.525Z,100993.88
2023-10-09T10:06:34.821Z,100986.81
2023-10-09T10:09:04.213Z,100987.75
2023-10-09T10:11:48.139Z,100985.94
2023-10-09T10:14:33.301Z,100979.72
2023-10-09T10:17:22.252Z,100970.84
2023-10-09T10:20:19.669Z,100956.75
2023-10-09T10:22:50.988Z,100965.50
2023-10-09T10:25:51.423Z,100969.88
2023-10-09T10:28:52.790Z,100965.50
2023-10-09T10:31:21.395Z,100956.56
2023-10-09T10:33:58.554Z,100943.38
2023-10-09T10:36:31.354Z,100937.31
2023-10-09T10:39:07.205Z,100930.38
2023-10-09T10:41:41.018Z,100928.75
2023-10-09T10:44:28.560Z,100936.78
2023-10-09T10:46:57.878Z,100917.25
2023-10-09T10:49:28.524Z,100923.44
2023-10-09T10:52:15.572Z,100928.03
2023-10-09T10:54:43.777Z,100933.53
2023-10-09T10:57:21.806Z,100935.53
2023-10-09T10:59:51.531Z,100938.34
2023-10-09T11:02:30.124Z,100946.38
2023-10-09T11:05:01.072Z,100941.13
2023-10-09T11:07:29.438Z,100933.16
2023-10-09T11:10:08.431Z,100930.81
2023-10-09T11:12:44.544Z,100938.06
2023-10-09T11:15:23.120Z,100946.13
2023-10-09T11:18:18.513Z,100951.44
2023-10-09T11:21:18.800Z,100939.78
2023-10-09T11:23:53.356Z,100937.09
2023-10-09T11:26:28.060Z,100953.16
2023-10-09T11:29:16.313Z,100958.50
2023-10-09T11:32:07.231Z,100960.31
2023-10-09T11:34:37.909Z,100962.19
2023-10-09T11:37:19.585Z,100981.00
2023-10-09T11:39:58.931Z,100986.50
2023-10-09T11:42:48.437Z,100981.31
2023-10-09T11:45:30.301Z,100979.66
2023-10-09T11:48:35.447Z,100979.72
2023-10-09T11:51:06.467Z,100971.63
2023-10-09T11:53:45.500Z,100971.63
2023-10-09T11:56:18.799Z,100972.66
2023-10-09T11:58:51.974Z,100976.25
2023-10-09T12:01:22.156Z,100978.88
2023-10-09T12:03:52.977Z,100976.19
2023-10-09T12:06:25.540Z,100965.72
2023-10-09T12:08:55.556Z,100967.78
2023-10-09T12:11:31.029Z,100961.63
2023-10-09T12:14:00.256Z,100959.97
2023-10-09T12:16:35.047Z,100949.41
2023-10-09T12:19:04.572Z,100950.28
2023-10-09T12:21:32.788Z,100960.97
2023-10-09T12:24:02.730Z,100966.47
2023-10-09T12:26:36.826Z,100970.09
2023-10-09T12:29:05.767Z,100968.22
2023-10-09T12:31:35.969Z,100962.88
2023-10-09T12:34:04.680Z,100962.06
2023-10-09T12:36:39.042Z,100955.00
2023-10-09T12:39:07.690Z,100947.06
2023-10-09T12:41:43.201Z,100941.72
2023-10-09T12:44:17.099Z,100932.66
2023-10-09T12:46:54.227Z,100934.31
2023-10-09T12:49:32.606Z,100937.06
2023-10-09T12:52:01.165Z,100925.59
2023-10-09T12:54:29.607Z,100932.75
2023-10-09T12:56:59.748Z,100924.81
2023-10-09T12:59:28.033Z,100923.00
2023-10-09T13:01:59.846Z,100912.53
2023-10-09T13:04:34.055Z,100902.94
2023-10-09T13:07:06.777Z,100901.22
2023-10-09T13:09:44.705Z,100899.31
2023-10-09T13:12:20.165Z,100906.25
2023-10-09T13:14:51.662Z,100889.16
2023-10-09T13:17:22.353Z,100885.81
2023-10-09T13:19:50.663Z,100883.28
2023-10-09T13:22:19.016Z,100881.56
2023-10-09T13:24:50.417Z,100885.00
2023-10-09T13:27:23.444Z,100889.56
2023-10-09T13:29:54.200Z,100894.97
2023-10-09T13:32:22.499Z,100891.50
2023-10-09T13:34:51.514Z,100887.09
2023-10-09T13:37:24.024Z,100887.97
2023-10-09T13:39:55.413Z,100896.28
2023-10-09T13:42:26.849Z,100898.16
2023-10-09T13:44:58.265Z,100894.53
2023-10-09T13:47:33.535Z,100890.94
2023-10-09T13:50:02.745Z,100900.69
2023-10-09T13:52:32.825Z,100898.88
2023-10-09T13:55:17.100Z,100887.31
2023-10-09T13:57:48.954Z,100883.78
2023-10-09T14:00:34.499Z,100884.66
2023-10-09T14:03:15.189Z,100889.06
2023-10-09T14:06:03.115Z,100898.75
2023-10-09T14:08:31.582Z,100906.03
2023-10-09T14:11:02.118Z,100906.91
2023-10-09T14:13:30.697Z,100896.13
2023-10-09T14:16:01.696Z,100905.91
2023-10-09T14:18:31.998Z,100915.00
2023-10-09T14:21:06.721Z,100940.13
2023-10-09T14:23:36.608Z,100966.13
2023-10-09T14:26:05.108Z,100971.41
2023-10-09T14:28:33.399Z,100960.78
2023-10-09T14:31:02.888Z,100965.28
2023-10-09T14:33:38.166Z,100964.50
2023-10-09T14:36:07.771Z,100989.31
2023-10-09T14:38:40.244Z,100994.59
2023-10-09T14:41:13.535Z,101008.81
2023-10-09T14:43:43.166Z,101010.56
2023-10-09T14:46:16.378Z,101022.03
2023-10-09T14:48:47.929Z,101026.31
2023-10-09T14:51:16.459Z,101025.34
2023-10-09T14:53:45.964Z,101027.88
2023-10-09T14:56:17.607Z,101019.72
2023-10-09T14:58:48.700Z,101020.56
2023-10-09T15:01:20.721Z,101040.00
2023-10-09T15:03:49.911Z,101055.94
2023-10-09T15:06:19.750Z,101057.66
2023-10-09T15:08:48.880Z,101057.75
2023-10-09T15:11:17.173Z,101047.84
2023-10-09T15:13:45.441Z,101050.47
2023-10-09T15:16:13.756Z,101055.63
2023-10-09T15:18:42.070Z,101053.06
2023-10-09T15:21:10.763Z,101047.56
2023-10-09T15:23:39.094Z,101051.88
2023-10-09T15:26:08.823Z,101056.28
2023-10-09T15:28:37.271Z,101058.97
2023-10-09T15:31:13.106Z,101067.06
2023-10-09T15:33:41.828Z,101065.16
2023-10-09T15:36:22.009Z,101059.69
2023-10-09T15:38:51.904Z,101057.09
2023-10-09T15:41:23.311Z,101057.88
2023-10-09T15:43:53.638Z,101057.75
2023-10-09T15:46:24.762Z,101061.19
2023-10-09T15:48:54.765Z,101064.69
2023-10-09T15:51:24.045Z,101082.31
2023-10-09T15:53:53.649Z,101084.81
2023-10-09T15:56:23.089Z,101088.31
2023-10-09T15:58:51.563Z,101084.50
2023-10-09T16:01:24.186Z,101086.09
2023-10-09T16:03:52.557Z,101082.63
2023-10-09T16:06:21.614Z,101101.44
2023-10-09T16:08:52.117Z,101095.94
2023-10-09T16:11:21.696Z,101100.41
2023-10-09T16:13:50.032Z,101105.91
2023-10-09T16:16:30.532Z,101107.72
2023-10-09T16:19:01.914Z,101099.56
2023-10-09T16:21:31.572Z,101091.44
2023-10-09T16:24:01.121Z,101090.22
2023-10-09T16:26:30.668Z,101088.19
2023-10-09T16:29:01.810Z,101088.09
2023-10-09T16:31:31.808Z,101091.56
2023-10-09T16:34:00.088Z,101081.75
2023-10-09T16:36:28.762Z,101081.56
2023-10-09T16:38:57.576Z,101084.66
2023-10-09T16:41:27.906Z,101076.25
2023-10-09T16:43:58.206Z,101068.06
2023-10-09T16:46:26.507Z,101060.44
2023-10-09T16:48:57.512Z,101069.84
2023-10-09T16:51:26.720Z,101078.41
2023-10-09T16:53:56.126Z,101078.69
2023-10-09T16:56:25.052Z,101083.81
2023-10-09T16:58:54.632Z,101086.00
2023-10-09T17:01:23.159Z,101080.59
2023-10-09T17:04:00.553Z,101083.19
2023-10-09T17:06:30.711Z,101083.91
2023-10-09T17:08:59.582Z,101081.75
2023-10-09T17:11:27.845Z,101080.38
2023-10-09T17:13:59.645Z,101080.06
2023-10-09T17:16:31.003Z,101077.22
2023-10-09T17:19:02.086Z,101073.94
2023-10-09T17:21:38.008Z,101060.03
2023-10-09T17:24:12.690Z,101048.19
2023-10-09T17:26:41.703Z,101040.75
2023-10-09T17:29:12.187Z,101042.34
2023-10-09T17:31:41.466Z,101057.31
2023-10-09T17:34:09.836Z,101074.88
2023-10-09T17:36:38.077Z,101067.84
2023-10-09T17:39:09.184Z,101058.19
2023-10-09T17:41:37.907Z,101061.53
2023-10-09T17:44:06.958Z,101048.13
2023-10-09T17:46:35.385Z,101044.06
2023-10-09T17:49:04.075Z,101049.97
2023-10-09T17:51:32.559Z,101060.34
2023-10-09T17:54:01.101Z,101056.00
2023-10-09T17:56:29.578Z,101065.88
2023-10-09T17:59:00.411Z,101064.84
2023-10-09T18:01:31.631Z,101077.28
2023-10-09T18:04:01.267Z,101075.41
2023-10-09T18:06:29.495Z,101070.03
2023-10-09T18:08:57.724Z,101057.81
2023-10-09T18:11:26.403Z,101057.06
2023-10-09T18:13:55.771Z,101080.25
2023-10-09T18:16:24.637Z,101072.09
2023-10-09T18:18:54.998Z,101076.19
2023-10-09T18:21:23.882Z,101074.44
2023-10-09T18:23:52.319Z,101075.22
2023-10-09T18:26:21.527Z,101096.59
2023-10-09T18:28:50.075Z,101105.94
2023-10-09T18:31:19.120Z,101093.84
2023-10-09T18:33:49.188Z,101081.63
2023-10-09T18:36:19.657Z,101062.56
2023-10-09T18:38:53.013Z,101074.75
2023-10-09T18:41:23.995Z,101084.00
2023-10-09T18:43:55.180Z,101087.28
2023-10-09T18:46:24.363Z,101071.84
2023-10-09T18:48:53.322Z,101067.78
2023-10-09T18:51:21.760Z,101066.03
2023-10-09T18:53:50.191Z,101073.34
2023-10-09T18:56:22.404Z,101078.16
2023-10-09T18:58:54.129Z,101069.16
2023-10-09T19:01:22.519Z,101055.22
2023-10-09T19:03:52.439Z,101061.09
2023-10-09T19:06:24.192Z,101062.94
2023-10-09T19:08:54.690Z,101058.59
2023-10-09T19:11:25.641Z,101060.31
2023-10-09T19:13:53.970Z,101050.53
2023-10-09T19:16:23.231Z,101049.38
2023-10-09T19:18:51.749Z,101040.94
2023-10-09T19:21:20.838Z,101026.44
2023-10-09T19:23:49.177Z,101043.03
2023-10-09T19:26:19.359Z,101033.72
2023-10-09T19:28:49.785Z,101020.09
2023-10-09T19:31:18.313Z,101000.81
2023-10-09T19:33:46.553Z,100999.66
2023-10-09T19:36:20.676Z,101011.75
2023-10-09T19:38:52.628Z,101016.84
2023-10-09T19:41:23.674Z,101012.44
2023-10-09T19:43:53.960Z,101002.44
2023-10-09T19:46:22.451Z,100987.28
2023-10-09T19:48:50.781Z,100977.56
2023-10-09T19:51:19.867Z,100974.25
2023-10-09T19:53:48.704Z,100988.72
2023-10-09T19:56:20.540Z,100991.28
2023-10-09T19:58:48.885Z,100982.94
2023-10-09T20:01:17.829Z,100953.59
2023-10-09T20:03:46.526Z,100976.66
2023-10-09T20:06:18.311Z,100945.16
2023-10-09T20:08:46.622Z,100956.56
2023-10-09T20:11:15.081Z,100919.81
2023-10-09T20:13:45.307Z,100904.56
2023-10-09T20:16:13.896Z,100956.84
2023-10-09T20:18:44.399Z,100958.38
2023-10-09T20:21:13.914Z,100957.47
2023-10-09T20:23:43.582Z,100947.03
2023-10-09T20:26:18.874Z,100927.66
2023-10-09T20:28:47.575Z,100911.53
2023-10-09T20:31:16.629Z,100908.94
2023-10-09T20:33:45.758Z,100930.88
2023-10-09T20:36:19.610Z,100912.81
2023-10-09T20:38:51.186Z,100894.94
2023-10-09T20:41:20.651Z,100896.06
2023-10-09T20:43:49.311Z,100911.59
2023-10-09T20:46:17.995Z,100911.84
2023-10-09T20:48:47.465Z,100910.13
2023-10-09T20:51:19.764Z,100901.84
2023-10-09T20:53:48.104Z,100899.81
2023-10-09T20:56:16.376Z,100910.03
2023-10-09T20:58:45.009Z,100905.78
2023-10-09T21:03:53.383Z,100898.03
2023-10-09T21:06:22.965Z,100891.38
2023-10-09T21:08:51.383Z,100875.53
2023-10-09T21:11:20.898Z,100880.41
2023-10-09T21:13:49.339Z,100882.38
2023-10-09T21:16:18.348Z,100877.47
2023-10-09T21:18:48.624Z,100873.66
2023-10-09T21:21:17.601Z,100866.56
2023-10-09T21:23:46.587Z,100859.22
2023-10-09T21:26:24.907Z,100866.28
2023-10-09T21:28:54.533Z,100871.16
2023-10-09T21:31:24.527Z,100881.47
2023-10-09T21:33:53.058Z,100881.13
2023-10-09T21:36:21.895Z,100877.38
2023-10-09T21:38:50.467Z,100875.28
2023-10-09T21:41:21.800Z,100862.91
2023-10-09T21:43:55.601Z,100862.44
2023-10-09T21:46:27.386Z,100856.34
2023-10-09T21:48:55.920Z,100842.16
2023-10-09T21:51:24.242Z,100844.91
2023-10-09T21:53:52.596Z,100836.38
2023-10-09T21:56:22.013Z,100841.66
2023-10-09T21:58:50.688Z,100825.19
2023-10-09T22:01:21.122Z,100828.88
2023-10-09T22:03:50.640Z,100823.84
2023-10-09T22:06:19.026Z,100821.53
2023-10-09T22:08:47.341Z,100810.97
2023-10-09T22:11:17.954Z,100811.22
2023-10-09T22:13:47.749Z,100796.00
2023-10-09T22:16:16.142Z,100797.63
2023-10-09T22:18:45.188Z,100801.66
2023-10-09T22:21:13.602Z,100799.78
2023-10-09T22:23:48.184Z,100801.66
2023-10-09T22:26:17.214Z,100799.78
2023-10-09T22:28:48.327Z,100798.81
2023-10-09T22:31:22.551Z,100801.25
2023-10-09T22:33:55.982Z,100803.09
2023-10-09T22:36:38.182Z,100798.19
2023-10-09T22:39:22.807Z,100809.97
2023-10-09T22:41:56.164Z,100807.00
2023-10-09T22:44:26.370Z,100813.41
2023-10-09T22:46:57.754Z,100804.03
2023-10-09T22:49:34.224Z,100799.50
2023-10-09T22:52:12.901Z,100803.31
2023-10-09T22:54:44.126Z,100801.28
2023-10-09T22:57:14.695Z,100796.25
2023-10-09T22:59:47.045Z,100792.56
2023-10-09T23:02:36.281Z,100784.38
2023-10-09T23:05:14.598Z,100774.44
2023-10-09T23:07:43.474Z,100762.88
2023-10-09T23:10:18.021Z,100745.84
2023-10-09T23:12:49.046Z,100752.72
2023-10-09T23:15:37.129Z,100759.81
2023-10-09T23:18:14.055Z,100770.63
2023-10-09T23:21:11.264Z,100766.16
2023-10-09T23:23:42.844Z,100773.16
2023-10-09T23:26:11.951Z,100766.16
2023-10-09T23:28:40.923Z,100768.25
2023-10-09T23:31:29.452Z,100766.28
2023-10-09T23:33:57.831Z,100768.75
2023-10-09T23:36:29.034Z,100770.72
2023-10-09T23:39:36.268Z,100767.25
2023-10-09T23:42:17.180Z,100754.97
2023-10-09T23:44:45.520Z,100743.59
2023-10-09T23:47:18.836Z,100752.66
2023-10-09T23:49:52.342Z,100749.09
2023-10-09T23:52:20.605Z,100751.69
2023-10-09T23:54:51.663Z,100741.97
2023-10-09T23:57:23.132Z,100730.19
2023-10-09T23:59:55.752Z,100737.06
